sensor_id;sensor_type;location;lat;lon;timestamp;P1;durP1;ratioP1;P2;durP2;ratioP2
24030;SDS011;12240;51.142;22.486;2022-12-20T00:01:52;28.38;;;8.93;;
24030;SDS011;12240;51.142;22.486;2022-12-20T00:04:20;22.45;;;7.28;;
24030;SDS011;12240;51.142;22.486;2022-12-20T00:06:48;24.92;;;8.48;;
24030;SDS011;12240;51.142;22.486;2022-12-20T00:09:16;25.05;;;7.05;;
24030;SDS011;12240;51.142;22.486;2022-12-20T00:11:44;20.95;;;7.60;;
24030;SDS011;12240;51.142;22.486;2022-12-20T00:14:13;24.05;;;8.23;;
24030;SDS011;12240;51.142;22.486;2022-12-20T00:16:41;23.50;;;7.10;;
24030;SDS011;12240;51.142;22.486;2022-12-20T00:19:09;23.00;;;7.93;;
24030;SDS011;12240;51.142;22.486;2022-12-20T00:21:38;21.05;;;7.63;;
24030;SDS011;12240;51.142;22.486;2022-12-20T00:24:06;26.30;;;8.52;;
24030;SDS011;12240;51.142;22.486;2022-12-20T00:26:34;23.48;;;7.75;;
24030;SDS011;12240;51.142;22.486;2022-12-20T00:29:04;19.73;;;7.65;;
24030;SDS011;12240;51.142;22.486;2022-12-20T00:31:33;25.38;;;7.82;;
24030;SDS011;12240;51.142;22.486;2022-12-20T00:34:01;21.88;;;7.70;;
24030;SDS011;12240;51.142;22.486;2022-12-20T00:36:30;26.38;;;7.60;;
24030;SDS011;12240;51.142;22.486;2022-12-20T00:38:59;23.73;;;6.85;;
24030;SDS011;12240;51.142;22.486;2022-12-20T00:41:29;23.45;;;8.23;;
24030;SDS011;12240;51.142;22.486;2022-12-20T00:44:00;23.02;;;7.65;;
24030;SDS011;12240;51.142;22.486;2022-12-20T00:46:30;23.95;;;7.22;;
24030;SDS011;12240;51.142;22.486;2022-12-20T00:48:58;22.65;;;8.18;;
24030;SDS011;12240;51.142;22.486;2022-12-20T00:51:27;21.48;;;6.75;;
24030;SDS011;12240;51.142;22.486;2022-12-20T00:53:56;20.38;;;7.75;;
24030;SDS011;12240;51.142;22.486;2022-12-20T00:56:24;18.83;;;6.90;;
24030;SDS011;12240;51.142;22.486;2022-12-20T00:58:56;21.02;;;7.60;;
24030;SDS011;12240;51.142;22.486;2022-12-20T01:01:27;17.58;;;6.35;;
24030;SDS011;12240;51.142;22.486;2022-12-20T01:03:58;19.55;;;6.60;;
24030;SDS011;12240;51.142;22.486;2022-12-20T01:06:27;20.25;;;7.03;;
24030;SDS011;12240;51.142;22.486;2022-12-20T01:08:56;20.30;;;7.07;;
24030;SDS011;12240;51.142;22.486;2022-12-20T01:11:26;20.00;;;7.30;;
24030;SDS011;12240;51.142;22.486;2022-12-20T01:14:00;26.60;;;8.18;;
24030;SDS011;12240;51.142;22.486;2022-12-20T01:16:37;24.30;;;8.70;;
24030;SDS011;12240;51.142;22.486;2022-12-20T01:19:14;20.05;;;7.07;;
24030;SDS011;12240;51.142;22.486;2022-12-20T01:21:44;20.83;;;7.95;;
24030;SDS011;12240;51.142;22.486;2022-12-20T01:24:14;17.35;;;6.90;;
24030;SDS011;12240;51.142;22.486;2022-12-20T01:26:44;18.52;;;7.25;;
24030;SDS011;12240;51.142;22.486;2022-12-20T01:29:14;24.85;;;7.20;;
24030;SDS011;12240;51.142;22.486;2022-12-20T01:31:44;22.70;;;7.22;;
24030;SDS011;12240;51.142;22.486;2022-12-20T01:34:12;19.95;;;7.22;;
24030;SDS011;12240;51.142;22.486;2022-12-20T01:36:40;21.70;;;8.07;;
24030;SDS011;12240;51.142;22.486;2022-12-20T01:39:13;13.77;;;6.07;;
24030;SDS011;12240;51.142;22.486;2022-12-20T01:41:43;20.83;;;7.45;;
24030;SDS011;12240;51.142;22.486;2022-12-20T01:49:16;21.52;;;8.40;;
24030;SDS011;12240;51.142;22.486;2022-12-20T01:54:33;20.83;;;6.90;;
24030;SDS011;12240;51.142;22.486;2022-12-20T01:57:26;18.00;;;6.25;;
24030;SDS011;12240;51.142;22.486;2022-12-20T02:00:05;20.63;;;6.97;;
24030;SDS011;12240;51.142;22.486;2022-12-20T02:02:42;18.27;;;7.07;;
24030;SDS011;12240;51.142;22.486;2022-12-20T02:05:15;18.02;;;7.38;;
24030;SDS011;12240;51.142;22.486;2022-12-20T02:07:50;23.52;;;7.25;;
24030;SDS011;12240;51.142;22.486;2022-12-20T02:10:22;20.15;;;7.53;;
24030;SDS011;12240;51.142;22.486;2022-12-20T02:13:03;20.23;;;7.40;;
24030;SDS011;12240;51.142;22.486;2022-12-20T02:16:02;14.30;;;5.90;;
24030;SDS011;12240;51.142;22.486;2022-12-20T02:18:35;23.88;;;6.85;;
24030;SDS011;12240;51.142;22.486;2022-12-20T02:21:37;17.58;;;7.00;;
24030;SDS011;12240;51.142;22.486;2022-12-20T02:24:31;16.85;;;6.60;;
24030;SDS011;12240;51.142;22.486;2022-12-20T02:30:17;15.77;;;6.63;;
24030;SDS011;12240;51.142;22.486;2022-12-20T02:35:41;19.65;;;6.88;;
24030;SDS011;12240;51.142;22.486;2022-12-20T02:40:59;18.55;;;5.90;;
24030;SDS011;12240;51.142;22.486;2022-12-20T02:43:36;18.85;;;6.97;;
24030;SDS011;12240;51.142;22.486;2022-12-20T02:46:26;24.83;;;7.78;;
24030;SDS011;12240;51.142;22.486;2022-12-20T02:48:55;15.73;;;6.38;;
24030;SDS011;12240;51.142;22.486;2022-12-20T02:51:28;16.70;;;5.80;;
24030;SDS011;12240;51.142;22.486;2022-12-20T02:53:58;17.88;;;6.28;;
24030;SDS011;12240;51.142;22.486;2022-12-20T02:56:40;18.20;;;6.30;;
24030;SDS011;12240;51.142;22.486;2022-12-20T02:59:16;16.55;;;6.63;;
24030;SDS011;12240;51.142;22.486;2022-12-20T03:01:52;17.90;;;6.45;;
24030;SDS011;12240;51.142;22.486;2022-12-20T03:04:26;17.93;;;6.77;;
24030;SDS011;12240;51.142;22.486;2022-12-20T03:07:02;17.67;;;6.93;;
24030;SDS011;12240;51.142;22.486;2022-12-20T03:09:41;18.70;;;6.80;;
24030;SDS011;12240;51.142;22.486;2022-12-20T03:12:13;14.23;;;5.57;;
24030;SDS011;12240;51.142;22.486;2022-12-20T03:14:42;17.67;;;6.20;;
24030;SDS011;12240;51.142;22.486;2022-12-20T03:17:12;16.33;;;6.07;;
24030;SDS011;12240;51.142;22.486;2022-12-20T03:19:41;19.55;;;7.38;;
24030;SDS011;12240;51.142;22.486;2022-12-20T03:22:09;19.92;;;6.00;;
24030;SDS011;12240;51.142;22.486;2022-12-20T03:24:38;21.67;;;7.07;;
24030;SDS011;12240;51.142;22.486;2022-12-20T03:27:11;17.60;;;7.78;;
24030;SDS011;12240;51.142;22.486;2022-12-20T03:29:40;22.23;;;7.95;;
24030;SDS011;12240;51.142;22.486;2022-12-20T03:32:08;18.23;;;6.38;;
24030;SDS011;12240;51.142;22.486;2022-12-20T03:34:36;21.48;;;8.32;;
24030;SDS011;12240;51.142;22.486;2022-12-20T03:37:05;22.15;;;7.18;;
24030;SDS011;12240;51.142;22.486;2022-12-20T03:39:33;17.30;;;6.78;;
24030;SDS011;12240;51.142;22.486;2022-12-20T03:42:01;25.65;;;8.60;;
24030;SDS011;12240;51.142;22.486;2022-12-20T03:44:29;20.33;;;7.05;;
24030;SDS011;12240;51.142;22.486;2022-12-20T03:46:57;18.88;;;6.38;;
24030;SDS011;12240;51.142;22.486;2022-12-20T03:49:26;16.60;;;6.10;;
24030;SDS011;12240;51.142;22.486;2022-12-20T03:51:54;20.90;;;7.35;;
24030;SDS011;12240;51.142;22.486;2022-12-20T03:54:22;19.85;;;8.00;;
24030;SDS011;12240;51.142;22.486;2022-12-20T03:57:09;20.77;;;6.80;;
24030;SDS011;12240;51.142;22.486;2022-12-20T03:59:38;14.38;;;6.68;;
24030;SDS011;12240;51.142;22.486;2022-12-20T04:02:08;20.97;;;6.40;;
24030;SDS011;12240;51.142;22.486;2022-12-20T04:04:37;15.00;;;6.45;;
24030;SDS011;12240;51.142;22.486;2022-12-20T04:07:06;19.05;;;6.88;;
24030;SDS011;12240;51.142;22.486;2022-12-20T04:09:37;17.17;;;6.07;;
24030;SDS011;12240;51.142;22.486;2022-12-20T04:12:10;17.20;;;6.22;;
24030;SDS011;12240;51.142;22.486;2022-12-20T04:14:39;20.05;;;6.47;;
24030;SDS011;12240;51.142;22.486;2022-12-20T04:17:07;21.90;;;7.93;;
24030;SDS011;12240;51.142;22.486;2022-12-20T04:19:36;18.98;;;7.90;;
24030;SDS011;12240;51.142;22.486;2022-12-20T04:22:05;14.68;;;6.20;;
24030;SDS011;12240;51.142;22.486;2022-12-20T04:24:45;17.75;;;6.50;;
24030;SDS011;12240;51.142;22.486;2022-12-20T04:27:21;12.85;;;5.20;;
24030;SDS011;12240;51.142;22.486;2022-12-20T04:29:51;16.65;;;6.43;;
24030;SDS011;12240;51.142;22.486;2022-12-20T04:32:20;18.33;;;7.32;;
24030;SDS011;12240;51.142;22.486;2022-12-20T04:34:48;20.73;;;7.53;;
24030;SDS011;12240;51.142;22.486;2022-12-20T04:37:17;20.90;;;8.43;;
24030;SDS011;12240;51.142;22.486;2022-12-20T04:39:51;20.15;;;7.30;;
24030;SDS011;12240;51.142;22.486;2022-12-20T04:42:25;16.35;;;7.30;;
24030;SDS011;12240;51.142;22.486;2022-12-20T04:44:54;20.23;;;6.78;;
24030;SDS011;12240;51.142;22.486;2022-12-20T04:47:26;21.25;;;7.75;;
24030;SDS011;12240;51.142;22.486;2022-12-20T04:49:54;14.70;;;6.40;;
24030;SDS011;12240;51.142;22.486;2022-12-20T04:52:22;18.13;;;6.30;;
24030;SDS011;12240;51.142;22.486;2022-12-20T04:55:15;17.77;;;6.68;;
24030;SDS011;12240;51.142;22.486;2022-12-20T04:57:43;15.52;;;6.28;;
24030;SDS011;12240;51.142;22.486;2022-12-20T05:00:12;17.55;;;7.97;;
24030;SDS011;12240;51.142;22.486;2022-12-20T05:02:44;11.90;;;5.03;;
24030;SDS011;12240;51.142;22.486;2022-12-20T05:05:15;19.83;;;6.90;;
24030;SDS011;12240;51.142;22.486;2022-12-20T05:07:49;17.77;;;7.03;;
24030;SDS011;12240;51.142;22.486;2022-12-20T05:10:19;20.92;;;6.85;;
24030;SDS011;12240;51.142;22.486;2022-12-20T05:12:48;18.83;;;6.05;;
24030;SDS011;12240;51.142;22.486;2022-12-20T05:15:27;20.33;;;7.70;;
24030;SDS011;12240;51.142;22.486;2022-12-20T05:17:55;23.30;;;8.07;;
24030;SDS011;12240;51.142;22.486;2022-12-20T05:20:32;19.02;;;7.80;;
24030;SDS011;12240;51.142;22.486;2022-12-20T05:23:01;17.23;;;6.13;;
24030;SDS011;12240;51.142;22.486;2022-12-20T05:25:52;17.42;;;6.68;;
24030;SDS011;12240;51.142;22.486;2022-12-20T05:28:39;17.10;;;5.90;;
24030;SDS011;12240;51.142;22.486;2022-12-20T05:31:07;21.20;;;7.50;;
24030;SDS011;12240;51.142;22.486;2022-12-20T05:33:36;23.35;;;6.95;;
24030;SDS011;12240;51.142;22.486;2022-12-20T05:36:04;15.80;;;5.85;;
24030;SDS011;12240;51.142;22.486;2022-12-20T05:38:33;14.75;;;5.90;;
24030;SDS011;12240;51.142;22.486;2022-12-20T05:41:03;18.05;;;6.25;;
24030;SDS011;12240;51.142;22.486;2022-12-20T05:43:33;14.80;;;5.60;;
24030;SDS011;12240;51.142;22.486;2022-12-20T05:46:03;18.98;;;7.30;;
24030;SDS011;12240;51.142;22.486;2022-12-20T05:48:40;13.77;;;6.00;;
24030;SDS011;12240;51.142;22.486;2022-12-20T05:51:09;21.17;;;6.60;;
24030;SDS011;12240;51.142;22.486;2022-12-20T05:53:56;17.77;;;6.38;;
24030;SDS011;12240;51.142;22.486;2022-12-20T05:56:51;15.32;;;6.40;;
24030;SDS011;12240;51.142;22.486;2022-12-20T05:59:25;20.70;;;6.63;;
24030;SDS011;12240;51.142;22.486;2022-12-20T06:01:54;21.35;;;6.82;;
24030;SDS011;12240;51.142;22.486;2022-12-20T06:04:23;20.75;;;6.65;;
24030;SDS011;12240;51.142;22.486;2022-12-20T06:06:51;23.60;;;8.02;;
24030;SDS011;12240;51.142;22.486;2022-12-20T06:09:20;20.70;;;6.78;;
24030;SDS011;12240;51.142;22.486;2022-12-20T06:11:57;19.40;;;7.40;;
24030;SDS011;12240;51.142;22.486;2022-12-20T06:14:26;21.52;;;6.95;;
24030;SDS011;12240;51.142;22.486;2022-12-20T06:16:56;19.48;;;6.97;;
24030;SDS011;12240;51.142;22.486;2022-12-20T06:19:24;21.23;;;7.22;;
24030;SDS011;12240;51.142;22.486;2022-12-20T06:21:55;19.08;;;7.80;;
24030;SDS011;12240;51.142;22.486;2022-12-20T06:24:37;25.25;;;7.72;;
24030;SDS011;12240;51.142;22.486;2022-12-20T06:27:14;20.33;;;7.07;;
24030;SDS011;12240;51.142;22.486;2022-12-20T06:29:42;19.98;;;6.72;;
24030;SDS011;12240;51.142;22.486;2022-12-20T06:32:21;16.80;;;6.60;;
24030;SDS011;12240;51.142;22.486;2022-12-20T06:34:50;21.55;;;8.15;;
24030;SDS011;12240;51.142;22.486;2022-12-20T06:37:18;17.90;;;6.70;;
24030;SDS011;12240;51.142;22.486;2022-12-20T06:39:46;24.30;;;7.75;;
24030;SDS011;12240;51.142;22.486;2022-12-20T06:42:14;15.30;;;5.93;;
24030;SDS011;12240;51.142;22.486;2022-12-20T06:44:44;19.02;;;6.75;;
24030;SDS011;12240;51.142;22.486;2022-12-20T06:47:12;19.20;;;7.20;;
24030;SDS011;12240;51.142;22.486;2022-12-20T06:49:41;23.83;;;8.30;;
24030;SDS011;12240;51.142;22.486;2022-12-20T06:52:19;20.70;;;6.55;;
24030;SDS011;12240;51.142;22.486;2022-12-20T06:54:50;13.98;;;6.35;;
24030;SDS011;12240;51.142;22.486;2022-12-20T06:57:20;19.45;;;6.72;;
24030;SDS011;12240;51.142;22.486;2022-12-20T06:59:49;16.63;;;6.88;;
24030;SDS011;12240;51.142;22.486;2022-12-20T07:02:17;19.73;;;6.88;;
24030;SDS011;12240;51.142;22.486;2022-12-20T07:04:45;16.75;;;6.40;;
24030;SDS011;12240;51.142;22.486;2022-12-20T07:07:13;19.42;;;7.30;;
24030;SDS011;12240;51.142;22.486;2022-12-20T07:09:43;19.42;;;7.05;;
24030;SDS011;12240;51.142;22.486;2022-12-20T07:12:11;21.67;;;8.40;;
24030;SDS011;12240;51.142;22.486;2022-12-20T07:14:40;19.40;;;7.00;;
24030;SDS011;12240;51.142;22.486;2022-12-20T07:17:08;18.98;;;8.20;;
24030;SDS011;12240;51.142;22.486;2022-12-20T07:19:38;19.52;;;6.50;;
24030;SDS011;12240;51.142;22.486;2022-12-20T07:22:14;18.65;;;7.22;;
24030;SDS011;12240;51.142;22.486;2022-12-20T07:24:43;20.83;;;7.72;;
24030;SDS011;12240;51.142;22.486;2022-12-20T07:27:12;16.00;;;6.72;;
24030;SDS011;12240;51.142;22.486;2022-12-20T07:29:40;19.48;;;7.97;;
24030;SDS011;12240;51.142;22.486;2022-12-20T07:32:10;20.48;;;7.47;;
24030;SDS011;12240;51.142;22.486;2022-12-20T07:34:40;15.20;;;5.97;;
24030;SDS011;12240;51.142;22.486;2022-12-20T07:37:09;22.75;;;8.13;;
24030;SDS011;12240;51.142;22.486;2022-12-20T07:39:38;24.35;;;8.32;;
24030;SDS011;12240;51.142;22.486;2022-12-20T07:42:09;23.63;;;8.38;;
24030;SDS011;12240;51.142;22.486;2022-12-20T07:44:42;14.38;;;5.50;;
24030;SDS011;12240;51.142;22.486;2022-12-20T07:47:10;21.02;;;8.10;;
24030;SDS011;12240;51.142;22.486;2022-12-20T07:49:38;23.80;;;8.07;;
24030;SDS011;12240;51.142;22.486;2022-12-20T07:52:07;19.55;;;7.90;;
24030;SDS011;12240;51.142;22.486;2022-12-20T07:54:41;23.80;;;8.50;;
24030;SDS011;12240;51.142;22.486;2022-12-20T07:57:17;18.80;;;7.22;;
24030;SDS011;12240;51.142;22.486;2022-12-20T07:59:53;16.60;;;7.05;;
24030;SDS011;12240;51.142;22.486;2022-12-20T08:02:26;19.67;;;7.85;;
24030;SDS011;12240;51.142;22.486;2022-12-20T08:05:04;20.85;;;8.05;;
24030;SDS011;12240;51.142;22.486;2022-12-20T08:07:36;21.92;;;7.50;;
24030;SDS011;12240;51.142;22.486;2022-12-20T08:10:09;20.65;;;8.25;;
24030;SDS011;12240;51.142;22.486;2022-12-20T08:12:40;20.98;;;7.28;;
24030;SDS011;12240;51.142;22.486;2022-12-20T08:15:11;18.50;;;7.05;;
24030;SDS011;12240;51.142;22.486;2022-12-20T08:17:41;24.80;;;8.60;;
24030;SDS011;12240;51.142;22.486;2022-12-20T08:20:09;23.10;;;8.05;;
24030;SDS011;12240;51.142;22.486;2022-12-20T08:22:37;24.33;;;9.18;;
24030;SDS011;12240;51.142;22.486;2022-12-20T08:25:07;19.95;;;6.90;;
24030;SDS011;12240;51.142;22.486;2022-12-20T08:27:36;19.87;;;8.13;;
24030;SDS011;12240;51.142;22.486;2022-12-20T08:30:05;18.08;;;6.85;;
24030;SDS011;12240;51.142;22.486;2022-12-20T08:32:36;25.75;;;9.45;;
24030;SDS011;12240;51.142;22.486;2022-12-20T08:35:04;23.73;;;7.93;;
24030;SDS011;12240;51.142;22.486;2022-12-20T08:37:33;22.40;;;8.00;;
24030;SDS011;12240;51.142;22.486;2022-12-20T08:40:01;23.33;;;9.45;;
24030;SDS011;12240;51.142;22.486;2022-12-20T08:42:30;26.88;;;10.40;;
24030;SDS011;12240;51.142;22.486;2022-12-20T08:44:58;22.92;;;7.97;;
24030;SDS011;12240;51.142;22.486;2022-12-20T08:47:27;22.00;;;9.02;;
24030;SDS011;12240;51.142;22.486;2022-12-20T08:49:56;20.02;;;7.82;;
24030;SDS011;12240;51.142;22.486;2022-12-20T08:52:24;25.48;;;8.52;;
24030;SDS011;12240;51.142;22.486;2022-12-20T08:54:54;20.77;;;7.85;;
24030;SDS011;12240;51.142;22.486;2022-12-20T08:57:22;24.13;;;9.02;;
24030;SDS011;12240;51.142;22.486;2022-12-20T08:59:51;23.33;;;8.43;;
24030;SDS011;12240;51.142;22.486;2022-12-20T09:02:19;24.10;;;8.27;;
24030;SDS011;12240;51.142;22.486;2022-12-20T09:04:47;20.30;;;7.85;;
24030;SDS011;12240;51.142;22.486;2022-12-20T09:07:16;23.83;;;8.68;;
24030;SDS011;12240;51.142;22.486;2022-12-20T09:09:45;16.30;;;7.03;;
24030;SDS011;12240;51.142;22.486;2022-12-20T09:12:13;23.17;;;8.85;;
24030;SDS011;12240;51.142;22.486;2022-12-20T09:14:41;20.90;;;7.88;;
24030;SDS011;12240;51.142;22.486;2022-12-20T09:17:10;26.60;;;9.23;;
24030;SDS011;12240;51.142;22.486;2022-12-20T09:19:38;22.95;;;8.70;;
24030;SDS011;12240;51.142;22.486;2022-12-20T09:22:07;25.05;;;9.55;;
24030;SDS011;12240;51.142;22.486;2022-12-20T09:24:36;25.77;;;9.95;;
24030;SDS011;12240;51.142;22.486;2022-12-20T09:27:04;26.13;;;10.63;;
24030;SDS011;12240;51.142;22.486;2022-12-20T09:29:33;27.08;;;9.52;;
24030;SDS011;12240;51.142;22.486;2022-12-20T09:32:02;24.25;;;9.45;;
24030;SDS011;12240;51.142;22.486;2022-12-20T09:34:31;25.88;;;9.18;;
24030;SDS011;12240;51.142;22.486;2022-12-20T09:36:59;29.05;;;10.38;;
24030;SDS011;12240;51.142;22.486;2022-12-20T09:39:28;25.27;;;10.15;;
24030;SDS011;12240;51.142;22.486;2022-12-20T09:41:56;23.02;;;9.98;;
24030;SDS011;12240;51.142;22.486;2022-12-20T09:44:29;29.23;;;9.85;;
24030;SDS011;12240;51.142;22.486;2022-12-20T09:49:41;22.40;;;9.15;;
24030;SDS011;12240;51.142;22.486;2022-12-20T09:55:21;28.50;;;10.30;;
24030;SDS011;12240;51.142;22.486;2022-12-20T09:58:14;25.67;;;10.38;;
24030;SDS011;12240;51.142;22.486;2022-12-20T10:01:25;23.75;;;10.02;;
24030;SDS011;12240;51.142;22.486;2022-12-20T10:04:06;26.38;;;10.65;;
24030;SDS011;12240;51.142;22.486;2022-12-20T10:07:11;30.23;;;9.43;;
24030;SDS011;12240;51.142;22.486;2022-12-20T10:15:27;23.25;;;9.55;;
24030;SDS011;12240;51.142;22.486;2022-12-20T10:18:16;24.35;;;9.60;;
24030;SDS011;12240;51.142;22.486;2022-12-20T10:21:04;26.33;;;10.00;;
24030;SDS011;12240;51.142;22.486;2022-12-20T10:24:14;25.75;;;10.60;;
24030;SDS011;12240;51.142;22.486;2022-12-20T10:26:50;26.20;;;10.30;;
24030;SDS011;12240;51.142;22.486;2022-12-20T10:29:19;28.45;;;9.73;;
24030;SDS011;12240;51.142;22.486;2022-12-20T10:31:52;28.15;;;10.02;;
24030;SDS011;12240;51.142;22.486;2022-12-20T10:34:26;22.73;;;9.02;;
24030;SDS011;12240;51.142;22.486;2022-12-20T10:37:11;24.13;;;9.32;;
24030;SDS011;12240;51.142;22.486;2022-12-20T10:39:43;26.73;;;9.88;;
24030;SDS011;12240;51.142;22.486;2022-12-20T10:47:44;29.13;;;10.57;;
24030;SDS011;12240;51.142;22.486;2022-12-20T10:50:18;26.65;;;9.93;;
24030;SDS011;12240;51.142;22.486;2022-12-20T10:55:51;27.95;;;10.85;;
24030;SDS011;12240;51.142;22.486;2022-12-20T11:01:23;31.17;;;10.35;;
24030;SDS011;12240;51.142;22.486;2022-12-20T11:04:05;26.73;;;9.15;;
24030;SDS011;12240;51.142;22.486;2022-12-20T11:06:51;25.70;;;10.13;;
24030;SDS011;12240;51.142;22.486;2022-12-20T11:09:55;24.88;;;9.38;;
24030;SDS011;12240;51.142;22.486;2022-12-20T11:12:24;23.67;;;9.07;;
24030;SDS011;12240;51.142;22.486;2022-12-20T11:18:19;22.95;;;9.27;;
24030;SDS011;12240;51.142;22.486;2022-12-20T11:21:31;27.33;;;10.82;;
24030;SDS011;12240;51.142;22.486;2022-12-20T11:28:10;29.30;;;10.40;;
24030;SDS011;12240;51.142;22.486;2022-12-20T11:31:31;26.38;;;10.38;;
24030;SDS011;12240;51.142;22.486;2022-12-20T11:37:23;29.40;;;10.23;;
24030;SDS011;12240;51.142;22.486;2022-12-20T11:52:45;29.17;;;10.20;;
24030;SDS011;12240;51.142;22.486;2022-12-20T11:58:05;25.88;;;10.55;;
24030;SDS011;12240;51.142;22.486;2022-12-20T12:00:50;31.13;;;11.35;;
24030;SDS011;12240;51.142;22.486;2022-12-20T12:03:40;26.95;;;10.90;;
24030;SDS011;12240;51.142;22.486;2022-12-20T12:06:51;24.90;;;10.27;;
24030;SDS011;12240;51.142;22.486;2022-12-20T12:09:34;29.63;;;10.93;;
24030;SDS011;12240;51.142;22.486;2022-12-20T12:12:18;26.50;;;10.65;;
24030;SDS011;12240;51.142;22.486;2022-12-20T12:15:26;26.88;;;11.20;;
24030;SDS011;12240;51.142;22.486;2022-12-20T12:26:38;30.90;;;11.95;;
24030;SDS011;12240;51.142;22.486;2022-12-20T12:34:40;29.08;;;10.82;;
24030;SDS011;12240;51.142;22.486;2022-12-20T12:37:43;25.58;;;10.05;;
24030;SDS011;12240;51.142;22.486;2022-12-20T12:43:51;29.17;;;11.52;;
24030;SDS011;12240;51.142;22.486;2022-12-20T12:46:39;30.25;;;10.73;;
24030;SDS011;12240;51.142;22.486;2022-12-20T12:49:18;27.00;;;10.73;;
24030;SDS011;12240;51.142;22.486;2022-12-20T12:51:56;27.35;;;11.50;;
24030;SDS011;12240;51.142;22.486;2022-12-20T12:54:28;29.40;;;11.25;;
24030;SDS011;12240;51.142;22.486;2022-12-20T12:57:14;28.77;;;11.02;;
24030;SDS011;12240;51.142;22.486;2022-12-20T12:59:45;30.88;;;11.23;;
24030;SDS011;12240;51.142;22.486;2022-12-20T13:07:52;33.75;;;11.60;;
24030;SDS011;12240;51.142;22.486;2022-12-20T13:13:11;32.05;;;11.82;;
24030;SDS011;12240;51.142;22.486;2022-12-20T13:15:48;31.60;;;12.38;;
24030;SDS011;12240;51.142;22.486;2022-12-20T13:18:21;32.60;;;12.75;;
24030;SDS011;12240;51.142;22.486;2022-12-20T13:40:37;31.17;;;11.82;;
24030;SDS011;12240;51.142;22.486;2022-12-20T13:45:54;29.08;;;11.52;;
24030;SDS011;12240;51.142;22.486;2022-12-20T13:51:04;27.80;;;11.57;;
24030;SDS011;12240;51.142;22.486;2022-12-20T13:53:34;30.15;;;11.55;;
24030;SDS011;12240;51.142;22.486;2022-12-20T13:58:54;26.77;;;11.60;;
24030;SDS011;12240;51.142;22.486;2022-12-20T14:01:25;31.80;;;13.13;;
24030;SDS011;12240;51.142;22.486;2022-12-20T14:03:54;29.25;;;11.63;;
24030;SDS011;12240;51.142;22.486;2022-12-20T14:06:23;32.92;;;12.70;;
24030;SDS011;12240;51.142;22.486;2022-12-20T14:08:53;32.67;;;11.77;;
24030;SDS011;12240;51.142;22.486;2022-12-20T14:11:23;32.92;;;13.05;;
24030;SDS011;12240;51.142;22.486;2022-12-20T14:13:57;30.20;;;12.10;;
24030;SDS011;12240;51.142;22.486;2022-12-20T14:16:29;31.73;;;12.07;;
24030;SDS011;12240;51.142;22.486;2022-12-20T14:19:00;33.67;;;12.70;;
24030;SDS011;12240;51.142;22.486;2022-12-20T14:21:33;32.13;;;12.05;;
24030;SDS011;12240;51.142;22.486;2022-12-20T14:24:07;29.95;;;12.25;;
24030;SDS011;12240;51.142;22.486;2022-12-20T14:26:49;29.63;;;11.10;;
24030;SDS011;12240;51.142;22.486;2022-12-20T14:29:23;36.75;;;12.77;;
24030;SDS011;12240;51.142;22.486;2022-12-20T14:31:58;31.70;;;12.07;;
24030;SDS011;12240;51.142;22.486;2022-12-20T14:34:27;31.65;;;11.55;;
24030;SDS011;12240;51.142;22.486;2022-12-20T14:42:39;26.10;;;11.05;;
24030;SDS011;12240;51.142;22.486;2022-12-20T14:47:36;34.47;;;11.05;;
24030;SDS011;12240;51.142;22.486;2022-12-20T14:50:19;33.58;;;11.60;;
24030;SDS011;12240;51.142;22.486;2022-12-20T14:53:16;30.10;;;11.27;;
24030;SDS011;12240;51.142;22.486;2022-12-20T14:55:49;36.20;;;12.32;;
24030;SDS011;12240;51.142;22.486;2022-12-20T14:58:23;34.67;;;11.75;;
24030;SDS011;12240;51.142;22.486;2022-12-20T15:01:02;30.73;;;10.98;;
24030;SDS011;12240;51.142;22.486;2022-12-20T15:03:51;37.67;;;12.52;;
24030;SDS011;12240;51.142;22.486;2022-12-20T15:06:33;33.70;;;11.35;;
24030;SDS011;12240;51.142;22.486;2022-12-20T15:09:08;33.40;;;12.23;;
24030;SDS011;12240;51.142;22.486;2022-12-20T15:11:37;36.88;;;12.15;;
24030;SDS011;12240;51.142;22.486;2022-12-20T15:17:04;36.67;;;13.18;;
24030;SDS011;12240;51.142;22.486;2022-12-20T15:19:40;37.10;;;13.00;;
24030;SDS011;12240;51.142;22.486;2022-12-20T15:22:13;35.92;;;13.48;;
24030;SDS011;12240;51.142;22.486;2022-12-20T15:24:46;31.52;;;12.48;;
24030;SDS011;12240;51.142;22.486;2022-12-20T15:27:15;34.92;;;13.82;;
24030;SDS011;12240;51.142;22.486;2022-12-20T15:29:44;38.33;;;14.27;;
24030;SDS011;12240;51.142;22.486;2022-12-20T15:32:22;36.13;;;13.45;;
24030;SDS011;12240;51.142;22.486;2022-12-20T15:34:57;38.25;;;12.55;;
24030;SDS011;12240;51.142;22.486;2022-12-20T15:37:25;36.22;;;13.40;;
24030;SDS011;12240;51.142;22.486;2022-12-20T15:39:54;36.70;;;13.32;;
24030;SDS011;12240;51.142;22.486;2022-12-20T15:42:34;37.63;;;14.60;;
24030;SDS011;12240;51.142;22.486;2022-12-20T15:45:04;38.13;;;12.70;;
24030;SDS011;12240;51.142;22.486;2022-12-20T15:47:33;40.97;;;13.93;;
24030;SDS011;12240;51.142;22.486;2022-12-20T15:50:02;40.72;;;14.68;;
24030;SDS011;12240;51.142;22.486;2022-12-20T15:52:30;34.95;;;14.00;;
24030;SDS011;12240;51.142;22.486;2022-12-20T15:54:59;36.58;;;13.30;;
24030;SDS011;12240;51.142;22.486;2022-12-20T15:57:27;35.45;;;13.05;;
24030;SDS011;12240;51.142;22.486;2022-12-20T15:59:59;32.95;;;12.73;;
24030;SDS011;12240;51.142;22.486;2022-12-20T16:02:38;45.55;;;14.80;;
24030;SDS011;12240;51.142;22.486;2022-12-20T16:05:08;29.55;;;13.27;;
24030;SDS011;12240;51.142;22.486;2022-12-20T16:07:40;38.05;;;15.00;;
24030;SDS011;12240;51.142;22.486;2022-12-20T16:10:11;41.00;;;14.38;;
24030;SDS011;12240;51.142;22.486;2022-12-20T16:12:41;35.47;;;12.98;;
24030;SDS011;12240;51.142;22.486;2022-12-20T16:15:18;39.70;;;13.65;;
24030;SDS011;12240;51.142;22.486;2022-12-20T16:17:50;33.38;;;12.48;;
24030;SDS011;12240;51.142;22.486;2022-12-20T16:20:18;34.08;;;12.77;;
24030;SDS011;12240;51.142;22.486;2022-12-20T16:22:47;36.03;;;13.82;;
24030;SDS011;12240;51.142;22.486;2022-12-20T16:25:29;39.53;;;13.57;;
24030;SDS011;12240;51.142;22.486;2022-12-20T16:28:00;40.58;;;13.13;;
24030;SDS011;12240;51.142;22.486;2022-12-20T16:30:29;38.83;;;14.30;;
24030;SDS011;12240;51.142;22.486;2022-12-20T16:32:57;33.25;;;12.60;;
24030;SDS011;12240;51.142;22.486;2022-12-20T16:35:30;33.78;;;12.50;;
24030;SDS011;12240;51.142;22.486;2022-12-20T16:38:03;34.75;;;12.32;;
24030;SDS011;12240;51.142;22.486;2022-12-20T16:40:32;31.98;;;11.93;;
24030;SDS011;12240;51.142;22.486;2022-12-20T16:43:00;36.00;;;12.63;;
24030;SDS011;12240;51.142;22.486;2022-12-20T16:45:29;33.08;;;11.48;;
24030;SDS011;12240;51.142;22.486;2022-12-20T16:48:03;37.63;;;13.60;;
24030;SDS011;12240;51.142;22.486;2022-12-20T16:50:32;36.97;;;13.18;;
24030;SDS011;12240;51.142;22.486;2022-12-20T16:53:11;37.90;;;13.18;;
24030;SDS011;12240;51.142;22.486;2022-12-20T16:55:41;37.50;;;13.85;;
24030;SDS011;12240;51.142;22.486;2022-12-20T16:58:10;39.50;;;12.85;;
24030;SDS011;12240;51.142;22.486;2022-12-20T17:00:38;36.65;;;13.27;;
24030;SDS011;12240;51.142;22.486;2022-12-20T17:03:09;33.00;;;13.27;;
24030;SDS011;12240;51.142;22.486;2022-12-20T17:05:40;42.45;;;14.70;;